Time;durP1;ratioP1;P1;durP2;ratioP2;P2;SDS_P1;SDS_P2;PMS_P1;PMS_P2;Temp;Humidity;BMP_temperature;BMP_pressure;BME280_temperature;BME280_humidity;BME280_pressure;Samples;Min_cycle;Max_cycle;Signal;HPM_P1;HPM_P2
2023/07/20 04:04:41;;;;;;;1.50;1.40;;;17.30;99.40;;;;;;5940982;23;20487;-72
2023/07/20 04:07:07;;;;;;;1.10;1.00;;;17.30;99.30;;;;;;4969977;28;20540;-70
2023/07/20 04:09:33;;;;;;;2.20;1.37;;;17.30;99.10;;;;;;4957499;29;20173;-70
2023/07/20 04:12:01;;;;;;;1.47;1.37;;;17.30;99.20;;;;;;4956245;28;20207;-70
2023/07/20 04:14:27;;;;;;;1.47;1.37;;;17.30;99.50;;;;;;4955714;29;20422;-69
2023/07/20 04:16:53;;;;;;;2.03;1.77;;;17.30;99.50;;;;;;4956522;28;20429;-70
2023/07/20 04:19:18;;;;;;;1.33;1.23;;;17.40;99.40;;;;;;4956369;28;20254;-69
2023/07/20 04:21:44;;;;;;;1.73;1.63;;;17.40;99.40;;;;;;4956941;28;20174;-71
2023/07/20 04:24:09;;;;;;;1.93;1.70;;;17.50;99.40;;;;;;4956698;29;20217;-70
2023/07/20 04:26:36;;;;;;;1.90;1.80;;;17.50;99.90;;;;;;4956207;29;20170;-69
2023/07/20 04:29:02;;;;;;;2.40;1.63;;;17.60;99.90;;;;;;4957159;29;20511;-71
2023/07/20 04:31:27;;;;;;;3.03;1.67;;;17.60;99.80;;;;;;4957040;28;20496;-70
2023/07/20 04:33:53;;;;;;;2.50;1.17;;;17.80;99.90;;;;;;4956471;29;20653;-72
2023/07/20 04:36:19;;;;;;;1.40;1.30;;;18.00;99.70;;;;;;4939209;29;20199;-70
2023/07/20 04:38:47;;;;;;;1.40;1.33;;;18.30;99.20;;;;;;4957022;29;20572;-70
2023/07/20 04:41:13;;;;;;;0.97;0.97;;;18.70;98.80;;;;;;4957105;28;20520;-69
2023/07/20 04:43:43;;;;;;;1.00;1.00;;;19.00;97.90;;;;;;4956891;29;20474;-70
2023/07/20 04:46:09;;;;;;;1.40;1.30;;;19.30;97.10;;;;;;4956502;28;20575;-70
2023/07/20 04:48:34;;;;;;;1.30;1.20;;;19.50;96.20;;;;;;4956956;28;20894;-70
2023/07/20 04:51:00;;;;;;;1.30;1.20;;;19.70;95.80;;;;;;4956681;28;20409;-69
2023/07/20 04:53:25;;;;;;;0.87;0.83;;;19.80;95.60;;;;;;4956383;28;20205;-71
2023/07/20 04:55:51;;;;;;;1.00;1.00;;;19.80;95.60;;;;;;4956717;29;20185;-71
2023/07/20 04:58:20;;;;;;;0.83;0.83;;;19.80;95.40;;;;;;4956693;29;20173;-70
2023/07/20 05:00:46;;;;;;;1.00;1.00;;;19.80;95.20;;;;;;4956517;29;20397;-70
2023/07/20 05:03:12;;;;;;;1.83;1.07;;;19.90;95.00;;;;;;4957171;29;20409;-70
2023/07/20 05:05:37;;;;;;;1.20;1.20;;;19.90;95.30;;;;;;4956063;28;20664;-70
2023/07/20 05:08:04;;;;;;;1.17;1.10;;;19.90;95.20;;;;;;4956641;28;20714;-71
2023/07/20 05:10:29;;;;;;;1.43;1.40;;;19.90;95.00;;;;;;4956420;28;20179;-70
2023/07/20 05:12:55;;;;;;;2.10;1.93;;;20.00;95.30;;;;;;4956349;28;20448;-70
2023/07/20 05:15:21;;;;;;;0.80;0.80;;;20.10;95.10;;;;;;4955954;28;20650;-70
2023/07/20 05:17:48;;;;;;;1.20;1.00;;;20.20;94.00;;;;;;4956130;28;20184;-69
2023/07/20 05:20:14;;;;;;;2.30;1.60;;;20.30;94.20;;;;;;4956483;29;20243;-70
2023/07/20 05:22:43;;;;;;;1.97;1.87;;;20.40;94.00;;;;;;4956107;28;20401;-69
2023/07/20 05:25:10;;;;;;;1.40;1.23;;;20.60;93.30;;;;;;4955830;29;20971;-69
2023/07/20 05:27:40;;;;;;;1.40;1.30;;;20.80;93.00;;;;;;4956173;29;20400;-68
2023/07/20 05:30:07;;;;;;;1.17;1.10;;;20.90;92.80;;;;;;4956121;28;20408;-68
2023/07/20 05:32:33;;;;;;;0.87;0.87;;;20.90;93.10;;;;;;4955940;28;20496;-69
2023/07/20 05:34:58;;;;;;;1.00;1.00;;;20.90;93.00;;;;;;4955585;29;20436;-70
2023/07/20 05:37:24;;;;;;;1.30;1.20;;;20.90;92.90;;;;;;4955940;28;20382;-69
2023/07/20 05:39:50;;;;;;;1.13;1.03;;;21.00;92.80;;;;;;4955957;29;20464;-69
2023/07/20 05:42:15;;;;;;;1.00;1.00;;;21.00;92.90;;;;;;4955712;29;20612;-70
2023/07/20 05:44:41;;;;;;;1.40;1.30;;;21.10;92.80;;;;;;4961051;28;20196;-69
2023/07/20 05:47:07;;;;;;;0.90;0.90;;;21.10;92.40;;;;;;4972977;28;20199;-67
2023/07/20 05:49:34;;;;;;;0.93;0.93;;;21.20;92.40;;;;;;4992108;28;20179;-68
2023/07/20 05:52:00;;;;;;;1.73;1.63;;;21.30;92.50;;;;;;4974852;28;20475;-69
2023/07/20 05:54:27;;;;;;;0.77;0.77;;;21.40;92.70;;;;;;4974500;28;20441;-68
2023/07/20 05:56:53;;;;;;;1.30;0.93;;;21.50;91.50;;;;;;4974298;28;20604;-69
2023/07/20 05:59:19;;;;;;;1.00;1.00;;;21.60;91.40;;;;;;4969123;28;20827;-69
2023/07/20 06:01:48;;;;;;;1.10;1.10;;;21.60;90.60;;;;;;4972563;28;20481;-69
2023/07/20 06:04:13;;;;;;;2.00;1.00;;;21.70;90.80;;;;;;4956881;28;20403;-69
2023/07/20 06:06:39;;;;;;;1.30;1.07;;;21.80;90.90;;;;;;4974736;28;20506;-69
2023/07/20 06:09:07;;;;;;;1.20;0.90;;;21.90;90.70;;;;;;4974667;28;20687;-73
2023/07/20 06:11:33;;;;;;;1.13;1.00;;;21.90;91.10;;;;;;4973199;28;20197;-72
2023/07/20 06:14:00;;;;;;;1.00;1.00;;;21.90;90.80;;;;;;4974340;28;20848;-71
2023/07/20 06:16:25;;;;;;;0.80;0.80;;;21.90;90.20;;;;;;4969863;28;20204;-72
2023/07/20 06:18:51;;;;;;;1.23;1.00;;;21.90;90.60;;;;;;4994069;28;20416;-72
2023/07/20 06:21:16;;;;;;;1.03;0.83;;;21.80;91.10;;;;;;4987336;28;20177;-73
2023/07/20 06:23:42;;;;;;;1.00;1.00;;;21.90;91.40;;;;;;4965620;28;20333;-71
2023/07/20 06:26:07;;;;;;;3.13;1.93;;;22.10;91.00;;;;;;4954760;29;20200;-72
2023/07/20 06:28:36;;;;;;;1.43;1.33;;;22.30;91.50;;;;;;4955090;29;20180;-73
2023/07/20 06:31:02;;;;;;;2.00;1.90;;;22.50;89.60;;;;;;4937307;29;20173;-72
2023/07/20 06:33:28;;;;;;;1.40;1.30;;;22.70;90.20;;;;;;4954653;29;20507;-71
2023/07/20 06:35:54;;;;;;;1.27;1.03;;;23.00;89.90;;;;;;4954227;29;20402;-72
2023/07/20 06:38:20;;;;;;;4.50;3.20;;;23.20;88.90;;;;;;4955038;29;20482;-70
2023/07/20 06:40:49;;;;;;;1.60;1.50;;;23.50;88.00;;;;;;4954763;29;20169;-72
2023/07/20 06:43:17;;;;;;;1.10;1.10;;;23.70;86.60;;;;;;4954871;29;20383;-71
2023/07/20 06:45:43;;;;;;;1.10;1.00;;;23.70;86.20;;;;;;4955063;29;20814;-72
2023/07/20 06:48:09;;;;;;;1.77;1.60;;;23.80;85.70;;;;;;4955119;28;20444;-70
2023/07/20 06:50:35;;;;;;;3.07;1.47;;;23.90;85.30;;;;;;4955165;28;20209;-73
2023/07/20 06:53:03;;;;;;;1.50;1.40;;;23.90;84.80;;;;;;4955162;28;20532;-70
2023/07/20 06:55:29;;;;;;;0.93;0.93;;;23.70;85.50;;;;;;4954576;28;20213;-70
2023/07/20 06:57:55;;;;;;;1.60;1.07;;;23.70;85.80;;;;;;4937670;29;20454;-72
2023/07/20 07:00:20;;;;;;;0.80;0.80;;;23.60;86.10;;;;;;4955243;29;20181;-71
2023/07/20 07:02:46;;;;;;;1.43;1.17;;;23.60;87.40;;;;;;4955209;29;20183;-72
2023/07/20 07:05:14;;;;;;;1.30;1.30;;;23.60;86.20;;;;;;4954645;29;20203;-71
2023/07/20 07:07:39;;;;;;;1.70;1.60;;;23.70;86.90;;;;;;4954902;28;20639;-70
2023/07/20 07:10:06;;;;;;;0.90;0.90;;;23.60;85.60;;;;;;4955040;28;20390;-70
2023/07/20 07:12:31;;;;;;;1.33;1.20;;;23.50;86.30;;;;;;4954733;29;20200;-72
2023/07/20 07:14:58;;;;;;;1.37;1.27;;;23.40;86.00;;;;;;4954456;29;20436;-70
2023/07/20 07:17:23;;;;;;;0.80;0.80;;;23.40;86.10;;;;;;4937769;29;20643;-72
2023/07/20 07:19:54;;;;;;;1.30;1.20;;;23.40;87.10;;;;;;4954940;29;20416;-71
2023/07/20 07:22:21;;;;;;;1.13;1.03;;;23.40;88.70;;;;;;4954757;28;20197;-71
2023/07/20 07:24:47;;;;;;;0.90;0.90;;;23.50;88.60;;;;;;4954153;29;20463;-73
2023/07/20 07:27:12;;;;;;;1.77;1.67;;;23.60;88.40;;;;;;4954641;28;20400;-73
2023/07/20 07:29:38;;;;;;;1.00;1.00;;;23.70;88.70;;;;;;4954658;29;20169;-71
2023/07/20 07:32:04;;;;;;;1.57;1.47;;;24.00;88.50;;;;;;4954709;29;20192;-72
2023/07/20 07:34:30;;;;;;;15.13;1.50;;;24.10;86.70;;;;;;4954389;29;20224;-72
2023/07/20 07:36:56;;;;;;;1.60;1.50;;;24.20;85.30;;;;;;4954794;29;20422;-72
2023/07/20 07:39:21;;;;;;;1.17;1.17;;;24.30;85.00;;;;;;4954574;28;20177;-71
2023/07/20 07:41:47;;;;;;;2.87;1.00;;;24.50;84.80;;;;;;4955998;28;20410;-71
2023/07/20 07:44:12;;;;;;;1.90;1.40;;;24.70;84.00;;;;;;4957682;29;20571;-70
2023/07/20 07:46:38;;;;;;;0.83;0.83;;;24.60;83.30;;;;;;4958003;29;20172;-71
2023/07/20 07:49:03;;;;;;;1.00;0.90;;;24.70;84.10;;;;;;4957931;29;20263;-72
2023/07/20 07:51:29;;;;;;;1.60;1.50;;;25.60;84.00;;;;;;4957953;28;20180;-72
2023/07/20 07:53:55;;;;;;;1.93;1.10;;;26.80;80.60;;;;;;4957512;29;20227;-72
2023/07/20 07:56:22;;;;;;;1.53;1.43;;;27.50;76.40;;;;;;4958117;28;20193;-70
2023/07/20 07:58:51;;;;;;;1.40;1.40;;;27.50;74.30;;;;;;4957982;29;20564;-72
2023/07/20 08:01:18;;;;;;;1.63;1.53;;;27.40;75.80;;;;;;4940451;29;20394;-70
2023/07/20 08:03:46;;;;;;;2.03;1.83;;;28.00;74.70;;;;;;4957475;28;20876;-71
2023/07/20 08:06:13;;;;;;;1.10;1.00;;;29.10;72.20;;;;;;4940065;29;20818;-72
2023/07/20 08:08:38;;;;;;;1.53;1.43;;;30.40;67.20;;;;;;4957585;28;20464;-72
2023/07/20 08:11:04;;;;;;;1.40;1.30;;;31.60;64.10;;;;;;4957729;28;20865;-72
2023/07/20 08:13:31;;;;;;;1.47;1.37;;;32.40;61.20;;;;;;4939985;29;20686;-72
2023/07/20 08:15:56;;;;;;;1.10;1.10;;;32.50;59.00;;;;;;4957599;29;20476;-74
2023/07/20 08:18:22;;;;;;;1.80;1.70;;;33.00;58.20;;;;;;4957579;28;20752;-69
2023/07/20 08:20:49;;;;;;;1.87;1.70;;;33.50;56.90;;;;;;4957520;29;20244;-74
2023/07/20 08:23:14;;;;;;;1.07;1.07;;;34.00;56.10;;;;;;4957138;29;20169;-71
2023/07/20 08:25:43;;;;;;;1.33;1.23;;;34.30;55.40;;;;;;4957058;29;20519;-74
2023/07/20 08:28:10;;;;;;;1.40;1.30;;;34.90;55.00;;;;;;4957315;28;20173;-71
2023/07/20 08:30:47;;;;;;;1.17;1.17;;;35.40;54.20;;;;;;4957326;28;20408;-75
2023/07/20 08:33:14;;;;;;;2.10;1.40;;;35.10;53.80;;;;;;4939884;28;20448;-72
2023/07/20 08:35:40;;;;;;;1.57;1.47;;;34.30;53.50;;;;;;4956945;28;20429;-72
2023/07/20 08:38:06;;;;;;;1.63;1.53;;;33.40;54.70;;;;;;4957030;29;20458;-72
2023/07/20 08:40:32;;;;;;;1.53;1.43;;;32.50;55.30;;;;;;4957015;28;20169;-73
2023/07/20 08:43:00;;;;;;;1.40;1.30;;;31.20;57.30;;;;;;4957058;29;20308;-72
2023/07/20 08:45:28;;;;;;;1.00;0.80;;;30.20;58.80;;;;;;4956605;29;20834;-72
2023/07/20 08:47:56;;;;;;;1.43;1.07;;;29.30;61.40;;;;;;4957020;28;20411;-72
2023/07/20 08:50:23;;;;;;;1.00;1.00;;;28.40;62.00;;;;;;4956851;28;20903;-72
2023/07/20 08:52:52;;;;;;;1.40;1.30;;;27.70;63.70;;;;;;4956273;28;20456;-73
2023/07/20 08:55:19;;;;;;;1.23;1.20;;;27.00;66.20;;;;;;4956585;29;20885;-71
2023/07/20 08:57:48;;;;;;;1.33;1.27;;;27.40;66.10;;;;;;4956981;29;20375;-72
2023/07/20 09:00:14;;;;;;;1.37;1.00;;;28.30;64.30;;;;;;4957014;29;20421;-70
2023/07/20 09:02:42;;;;;;;1.33;1.30;;;29.50;61.60;;;;;;4956450;29;20854;-72
2023/07/20 09:05:09;;;;;;;1.97;1.27;;;30.70;59.10;;;;;;4956261;29;20407;-70
2023/07/20 09:07:36;;;;;;;1.13;1.03;;;31.80;57.00;;;;;;4939138;29;20810;-71
2023/07/20 09:10:05;;;;;;;1.40;1.30;;;33.00;55.40;;;;;;4956548;28;20416;-72
2023/07/20 09:12:34;;;;;;;2.30;1.57;;;34.00;53.80;;;;;;4956507;28;20476;-73
2023/07/20 09:15:00;;;;;;;1.90;1.70;;;34.80;52.80;;;;;;4956000;28;20429;-72
2023/07/20 09:17:26;;;;;;;1.60;1.50;;;35.30;51.90;;;;;;4956339;29;20409;-73
2023/07/20 09:19:52;;;;;;;1.17;1.17;;;35.70;52.00;;;;;;4956306;29;20412;-72
2023/07/20 09:22:18;;;;;;;1.33;1.33;;;36.10;49.90;;;;;;4956405;28;20791;-70
2023/07/20 09:24:44;;;;;;;1.60;1.50;;;36.10;49.70;;;;;;4955897;29;20232;-72
2023/07/20 09:27:10;;;;;;;1.43;1.33;;;36.10;49.50;;;;;;4956317;28;20176;-70
2023/07/20 09:29:50;;;;;;;1.20;1.20;;;36.00;49.30;;;;;;4956215;29;20487;-71
2023/07/20 09:32:21;;;;;;;1.27;1.27;;;35.00;49.40;;;;;;4956157;29;20878;-73
2023/07/20 09:34:49;;;;;;;1.73;1.40;;;34.40;50.20;;;;;;4956010;29;20424;-71
2023/07/20 09:37:21;;;;;;;2.30;1.40;;;33.70;51.50;;;;;;4938699;29;20437;-71
2023/07/20 09:39:47;;;;;;;1.77;1.60;;;33.60;51.90;;;;;;4955837;28;20408;-72
2023/07/20 09:42:13;;;;;;;1.70;1.60;;;33.30;52.60;;;;;;4955844;28;20459;-72
2023/07/20 09:44:39;;;;;;;1.23;1.23;;;32.80;52.70;;;;;;4955651;28;20200;-72
2023/07/20 09:47:05;;;;;;;1.70;1.40;;;31.90;53.80;;;;;;4938708;29;20935;-72
2023/07/20 09:49:31;;;;;;;1.27;1.17;;;30.80;55.40;;;;;;4955879;29;20382;-70
2023/07/20 09:52:00;;;;;;;1.37;1.27;;;29.80;55.90;;;;;;4955944;28;20184;-71
2023/07/20 09:54:27;;;;;;;0.90;0.90;;;29.30;57.20;;;;;;4955397;28;20180;-71
2023/07/20 09:56:53;;;;;;;1.63;1.53;;;29.30;57.90;;;;;;4955923;28;20496;-71
2023/07/20 09:59:19;;;;;;;1.00;1.00;;;29.90;57.10;;;;;;4955625;29;20383;-71
2023/07/20 10:01:46;;;;;;;1.30;1.00;;;30.80;56.10;;;;;;4938282;29;20434;-72
2023/07/20 10:04:12;;;;;;;1.40;1.30;;;31.80;54.10;;;;;;4954928;28;20224;-71
2023/07/20 10:06:43;;;;;;;1.27;1.27;;;32.70;53.50;;;;;;4954770;28;20482;-70
2023/07/20 10:09:12;;;;;;;1.20;1.20;;;33.60;52.50;;;;;;4955413;29;20383;-73
2023/07/20 10:11:44;;;;;;;1.10;1.00;;;34.30;51.40;;;;;;4955426;29;20393;-70
2023/07/20 10:14:16;;;;;;;0.97;0.97;;;34.30;50.10;;;;;;4955113;29;20471;-72
2023/07/20 10:16:51;;;;;;;1.37;1.27;;;33.90;49.80;;;;;;4955358;28;20451;-70
2023/07/20 10:19:26;;;;;;;1.33;1.23;;;33.30;49.70;;;;;;4938419;29;20459;-73
2023/07/20 10:22:01;;;;;;;1.10;1.00;;;32.80;50.70;;;;;;4938029;29;20977;-72
2023/07/20 10:24:28;;;;;;;1.23;1.07;;;32.20;51.00;;;;;;4937748;29;20965;-71
2023/07/20 10:26:55;;;;;;;1.73;1.13;;;32.20;52.30;;;;;;4955587;29;20409;-71
2023/07/20 10:29:21;;;;;;;1.00;1.00;;;32.60;51.40;;;;;;4955396;29;20423;-70
2023/07/20 10:31:48;;;;;;;1.00;1.00;;;32.90;51.50;;;;;;4955378;29;20471;-71
2023/07/20 10:34:14;;;;;;;1.80;0.80;;;33.40;50.40;;;;;;4954853;28;20907;-72
2023/07/20 10:36:48;;;;;;;1.17;1.17;;;34.00;50.00;;;;;;4955085;28;20423;-71
2023/07/20 10:39:24;;;;;;;0.93;0.93;;;34.50;48.70;;;;;;4955109;28;20834;-73
2023/07/20 10:41:50;;;;;;;1.20;1.20;;;34.40;47.90;;;;;;4954882;28;20941;-70
2023/07/20 10:44:20;;;;;;;1.03;1.00;;;33.60;47.80;;;;;;4937500;29;20416;-72
2023/07/20 10:46:46;;;;;;;1.00;1.00;;;33.10;48.70;;;;;;4954860;28;20180;-70
2023/07/20 10:49:12;;;;;;;1.10;1.10;;;33.00;49.40;;;;;;4954780;28;20745;-71
2023/07/20 10:51:47;;;;;;;1.20;1.10;;;32.90;48.90;;;;;;4954984;29;20567;-68
2023/07/20 10:54:16;;;;;;;1.30;1.20;;;33.10;49.90;;;;;;4954561;28;20443;-73
2023/07/20 10:56:42;;;;;;;1.20;1.10;;;33.40;48.40;;;;;;4954962;29;20405;-71
2023/07/20 10:59:23;;;;;;;1.13;1.03;;;33.40;48.40;;;;;;4954794;28;20412;-72
2023/07/20 11:01:49;;;;;;;1.50;1.40;;;33.50;48.50;;;;;;4954764;29;20448;-71
2023/07/20 11:04:18;;;;;;;1.03;0.90;;;33.30;48.70;;;;;;4937323;29;20413;-73
2023/07/20 11:06:45;;;;;;;1.17;1.07;;;33.20;47.90;;;;;;4954718;28;20420;-70
2023/07/20 11:09:14;;;;;;;0.80;0.80;;;33.10;48.20;;;;;;4954803;29;20456;-71
2023/07/20 11:11:49;;;;;;;1.40;1.30;;;32.80;48.00;;;;;;4954972;28;20433;-71
2023/07/20 11:14:25;;;;;;;1.10;1.10;;;32.50;47.80;;;;;;4921561;29;20412;-70
2023/07/20 11:16:52;;;;;;;0.80;0.80;;;32.40;49.00;;;;;;4956735;28;20385;-70
2023/07/20 11:19:25;;;;;;;1.33;1.00;;;32.20;49.30;;;;;;4941257;29;20417;-71
2023/07/20 11:21:52;;;;;;;1.40;1.30;;;31.80;49.80;;;;;;4958566;29;20535;-72
2023/07/20 11:24:18;;;;;;;1.07;0.97;;;31.30;51.00;;;;;;4957967;29;20682;-69
2023/07/20 11:26:44;;;;;;;1.03;0.93;;;30.70;50.30;;;;;;4958130;28;20382;-71
2023/07/20 11:29:11;;;;;;;1.10;1.03;;;30.20;49.80;;;;;;4958248;28;20412;-70
2023/07/20 11:31:41;;;;;;;1.17;1.07;;;29.80;51.80;;;;;;4958391;28;20408;-69
2023/07/20 11:34:12;;;;;;;1.57;1.07;;;29.50;51.40;;;;;;4957923;28;20391;-72
2023/07/20 11:36:42;;;;;;;1.00;0.90;;;29.10;52.30;;;;;;4958289;29;20406;-70
2023/07/20 11:39:11;;;;;;;0.80;0.70;;;28.70;52.40;;;;;;4958172;29;20415;-74
2023/07/20 11:41:38;;;;;;;1.20;1.10;;;28.70;52.60;;;;;;4958050;29;20383;-69
2023/07/20 11:44:06;;;;;;;1.23;1.13;;;28.50;52.60;;;;;;4957867;29;20775;-71
2023/07/20 11:46:32;;;;;;;1.00;0.90;;;28.30;53.20;;;;;;4957996;29;20436;-70
2023/07/20 11:48:59;;;;;;;0.93;0.93;;;28.20;52.60;;;;;;4958064;28;20387;-72
2023/07/20 11:51:27;;;;;;;0.70;0.70;;;28.00;53.20;;;;;;4973109;28;20881;-72
2023/07/20 11:53:53;;;;;;;1.10;1.00;;;27.90;52.80;;;;;;4969603;28;20432;-71
2023/07/20 11:56:19;;;;;;;1.50;1.40;;;27.60;53.30;;;;;;4985134;28;20798;-70
2023/07/20 11:58:45;;;;;;;0.83;0.83;;;27.50;53.60;;;;;;4964748;28;20191;-71
2023/07/20 12:01:13;;;;;;;0.70;0.70;;;27.40;54.00;;;;;;4976889;28;20789;-71
2023/07/20 12:03:39;;;;;;;0.83;0.83;;;27.40;54.30;;;;;;4969658;28;20466;-72
2023/07/20 12:06:09;;;;;;;0.60;0.60;;;27.50;53.90;;;;;;4965139;28;20820;-72
2023/07/20 12:08:35;;;;;;;1.33;1.00;;;27.50;54.00;;;;;;4992054;28;20188;-73
2023/07/20 12:11:00;;;;;;;1.00;1.00;;;27.50;52.70;;;;;;4993942;28;20814;-71
2023/07/20 12:13:40;;;;;;;0.80;0.80;;;27.50;54.30;;;;;;4976412;28;20652;-74
2023/07/20 12:16:15;;;;;;;0.83;0.83;;;27.30;52.40;;;;;;4976470;28;20206;-71
2023/07/20 12:18:45;;;;;;;0.83;0.83;;;27.30;53.30;;;;;;4975565;28;20388;-72
2023/07/20 12:21:11;;;;;;;1.17;1.10;;;27.30;52.40;;;;;;4976189;28;20536;-70
2023/07/20 12:23:41;;;;;;;0.73;0.73;;;27.30;53.60;;;;;;4952432;29;20522;-73
2023/07/20 12:26:08;;;;;;;1.00;0.97;;;27.50;53.70;;;;;;4957275;28;20253;-69
2023/07/20 12:28:40;;;;;;;0.80;0.80;;;27.50;53.80;;;;;;4974927;28;20435;-69
2023/07/20 12:31:06;;;;;;;4.20;0.80;;;27.50;53.70;;;;;;4946569;29;20924;-72
2023/07/20 12:33:32;;;;;;;0.90;0.90;;;27.40;52.90;;;;;;4944151;28;20432;-71
2023/07/20 12:35:59;;;;;;;0.80;0.80;;;27.30;53.50;;;;;;4976142;28;20490;-67
2023/07/20 12:38:25;;;;;;;0.80;0.73;;;27.20;53.80;;;;;;4959032;28;20268;-72
2023/07/20 12:40:50;;;;;;;0.90;0.90;;;27.10;53.00;;;;;;4975166;28;20469;-69
2023/07/20 12:43:16;;;;;;;0.97;0.87;;;27.00;53.50;;;;;;4975799;28;20456;-71
2023/07/20 12:45:44;;;;;;;0.77;0.77;;;27.00;52.30;;;;;;4975381;28;20675;-72
2023/07/20 12:48:10;;;;;;;0.80;0.80;;;27.00;54.20;;;;;;4953321;28;20715;-70
2023/07/20 12:50:35;;;;;;;0.80;0.80;;;26.90;53.90;;;;;;4962910;28;20452;-70
2023/07/20 12:53:03;;;;;;;1.17;1.03;;;26.90;54.00;;;;;;4976001;28;20181;-69
2023/07/20 12:55:29;;;;;;;0.90;0.90;;;27.10;53.80;;;;;;4973365;28;20226;-69
2023/07/20 12:57:55;;;;;;;1.10;1.10;;;27.10;53.10;;;;;;4973951;28;20419;-70
2023/07/20 13:00:22;;;;;;;0.83;0.83;;;27.10;53.30;;;;;;4946910;29;20193;-67
2023/07/20 13:02:48;;;;;;;0.80;0.80;;;27.00;51.90;;;;;;4961295;28;20200;-72
2023/07/20 13:05:14;;;;;;;0.90;0.90;;;26.80;51.20;;;;;;4955855;28;20470;-72
2023/07/20 13:07:41;;;;;;;0.70;0.70;;;26.70;52.40;;;;;;4966946;28;20444;-73
2023/07/20 13:10:09;;;;;;;1.23;1.00;;;26.40;53.10;;;;;;4970804;28;20454;-71
2023/07/20 13:12:35;;;;;;;1.13;1.03;;;26.30;52.80;;;;;;4978118;28;20891;-72
2023/07/20 13:15:06;;;;;;;0.93;0.70;;;26.30;54.30;;;;;;4974918;28;20426;-71
2023/07/20 13:17:36;;;;;;;1.20;1.10;;;26.30;53.60;;;;;;4973992;28;20475;-69
2023/07/20 13:20:07;;;;;;;0.70;0.70;;;26.40;54.20;;;;;;4961595;28;20428;-73
2023/07/20 13:22:34;;;;;;;1.43;1.33;;;26.50;54.50;;;;;;4966377;28;20865;-71
2023/07/20 13:25:00;;;;;;;0.73;0.73;;;26.70;54.60;;;;;;4969536;28;20419;-71
2023/07/20 13:27:26;;;;;;;0.90;0.80;;;26.70;53.10;;;;;;4969198;28;20431;-70
2023/07/20 13:29:52;;;;;;;1.33;1.00;;;26.90;53.50;;;;;;4974555;28;20264;-67
2023/07/20 13:32:18;;;;;;;0.90;0.90;;;26.90;53.60;;;;;;4975136;28;20183;-70
2023/07/20 13:34:44;;;;;;;0.90;0.90;;;27.00;53.70;;;;;;4963378;28;20509;-77
2023/07/20 13:37:10;;;;;;;2.37;0.90;;;27.00;53.30;;;;;;4970683;28;20231;-73
2023/07/20 13:39:36;;;;;;;0.50;0.50;;;26.90;53.00;;;;;;4974194;28;20410;-81
2023/07/20 13:42:05;;;;;;;1.10;1.00;;;26.80;52.00;;;;;;4975357;28;20437;-79
2023/07/20 13:44:33;;;;;;;1.07;1.07;;;26.60;53.10;;;;;;4964291;28;20204;-75
2023/07/20 13:47:00;;;;;;;0.93;0.93;;;26.50;51.90;;;;;;4963542;28;20428;-79
2023/07/20 13:49:26;;;;;;;0.93;0.90;;;26.30;52.20;;;;;;4969871;28;20428;-71
2023/07/20 13:51:51;;;;;;;0.83;0.83;;;26.10;52.10;;;;;;4957120;28;20937;-70
2023/07/20 13:54:17;;;;;;;0.70;0.70;;;26.10;54.00;;;;;;4966071;28;20278;-75
2023/07/20 13:56:42;;;;;;;2.20;1.10;;;26.20;54.70;;;;;;4940232;28;20192;-70
2023/07/20 13:59:08;;;;;;;1.03;1.00;;;26.30;54.70;;;;;;4942393;28;20212;-71
2023/07/20 14:01:35;;;;;;;1.03;0.80;;;26.30;53.20;;;;;;4959370;28;20188;-72
2023/07/20 14:04:01;;;;;;;1.00;1.00;;;26.30;52.90;;;;;;4964657;28;20227;-69
2023/07/20 14:06:30;;;;;;;0.90;0.90;;;26.40;52.20;;;;;;4968480;28;20441;-75
2023/07/20 14:08:56;;;;;;;1.50;0.73;;;26.40;52.20;;;;;;4957650;28;20429;-77
2023/07/20 14:11:22;;;;;;;0.90;0.90;;;26.40;51.90;;;;;;4974363;28;20584;-75
2023/07/20 14:13:48;;;;;;;0.80;0.70;;;26.50;52.30;;;;;;4972018;28;20442;-71
2023/07/20 14:16:14;;;;;;;0.90;0.90;;;26.50;51.80;;;;;;4943011;29;20436;-69
2023/07/20 14:18:39;;;;;;;0.53;0.53;;;26.50;52.20;;;;;;4960786;28;20626;-70
2023/07/20 14:21:06;;;;;;;0.70;0.70;;;26.40;51.40;;;;;;4979701;28;20405;-70
2023/07/20 14:23:32;;;;;;;0.60;0.60;;;26.30;51.20;;;;;;4973978;28;20212;-72
2023/07/20 14:25:58;;;;;;;1.07;0.97;;;26.20;51.00;;;;;;4972257;28;20806;-71
2023/07/20 14:28:24;;;;;;;3.70;1.10;;;26.10;52.60;;;;;;4958105;28;20541;-75
2023/07/20 14:30:50;;;;;;;1.23;1.20;;;26.10;52.10;;;;;;4969494;28;20395;-71
2023/07/20 14:33:15;;;;;;;0.90;0.90;;;26.00;51.40;;;;;;4959743;28;20184;-70
2023/07/20 14:35:41;;;;;;;0.80;0.80;;;26.00;52.40;;;;;;4960439;28;20763;-70
2023/07/20 14:38:07;;;;;;;0.70;0.70;;;26.00;53.10;;;;;;4960514;28;20177;-71
2023/07/20 14:40:32;;;;;;;1.53;1.30;;;26.00;52.70;;;;;;4951358;28;20254;-69
2023/07/20 14:43:00;;;;;;;2.27;1.50;;;26.10;53.90;;;;;;4942266;29;20303;-79
2023/07/20 14:45:29;;;;;;;0.80;0.80;;;26.20;52.90;;;;;;4967353;28;20192;-75
2023/07/20 14:47:55;;;;;;;1.10;1.10;;;26.30;53.00;;;;;;4958331;28;20420;-74
2023/07/20 14:50:21;;;;;;;0.90;0.90;;;26.30;53.10;;;;;;4955017;28;20935;-70
2023/07/20 14:52:47;;;;;;;0.87;0.87;;;26.30;52.20;;;;;;4960284;28;20184;-78
2023/07/20 14:55:13;;;;;;;0.80;0.73;;;26.30;51.70;;;;;;4972515;28;20448;-74
2023/07/20 14:57:39;;;;;;;1.00;0.80;;;26.20;50.70;;;;;;4962286;28;20180;-79
2023/07/20 15:00:12;;;;;;;0.70;0.63;;;26.10;51.20;;;;;;4947244;29;20418;-70
2023/07/20 15:02:37;;;;;;;0.83;0.83;;;26.10;53.00;;;;;;4969029;28;20509;-71
2023/07/20 15:05:06;;;;;;;0.73;0.70;;;26.10;52.50;;;;;;4967297;28;20821;-76
2023/07/20 15:07:32;;;;;;;0.90;0.90;;;26.00;52.90;;;;;;4964435;28;20264;-76
2023/07/20 15:09:57;;;;;;;0.80;0.80;;;26.10;52.70;;;;;;4971223;28;20419;-79
2023/07/20 15:12:23;;;;;;;0.63;0.63;;;26.10;51.50;;;;;;4957342;28;20196;-78
2023/07/20 15:15:06;;;;;;;0.70;0.70;;;26.10;51.80;;;;;;4968368;28;20352;-72
2023/07/20 15:17:32;;;;;;;0.90;0.90;;;26.00;50.40;;;;;;4979935;28;20187;-69
2023/07/20 15:19:59;;;;;;;0.80;0.80;;;26.00;51.70;;;;;;4980112;28;20412;-80
2023/07/20 15:22:25;;;;;;;0.80;0.80;;;25.90;51.50;;;;;;4982484;28;20467;-76
2023/07/20 15:24:51;;;;;;;1.13;1.10;;;25.90;52.10;;;;;;4977792;28;20423;-69
2023/07/20 15:27:16;;;;;;;0.67;0.67;;;26.00;52.70;;;;;;4971121;28;20407;-68
2023/07/20 15:29:42;;;;;;;0.70;0.70;;;25.90;52.10;;;;;;4977232;28;20272;-68
2023/07/20 15:32:08;;;;;;;0.70;0.53;;;25.90;51.40;;;;;;4958790;28;20553;-71
2023/07/20 15:34:34;;;;;;;0.80;0.60;;;25.90;52.90;;;;;;4967426;28;20201;-66
2023/07/20 15:36:59;;;;;;;0.80;0.80;;;25.90;52.10;;;;;;4959032;28;20406;-69
2023/07/20 15:39:26;;;;;;;1.10;0.77;;;26.00;52.50;;;;;;4966589;28;20260;-69
2023/07/20 15:41:52;;;;;;;0.60;0.60;;;26.10;51.90;;;;;;4961170;28;20180;-67
2023/07/20 15:44:18;;;;;;;1.30;1.20;;;26.10;53.00;;;;;;4967155;28;20438;-68
2023/07/20 15:46:46;;;;;;;1.50;1.20;;;26.10;52.00;;;;;;4956633;28;20203;-67
2023/07/20 15:49:11;;;;;;;0.97;0.83;;;26.10;52.00;;;;;;4972592;28;20212;-67
2023/07/20 15:51:38;;;;;;;0.83;0.80;;;26.10;51.50;;;;;;4959065;28;20414;-66
2023/07/20 15:54:08;;;;;;;0.70;0.70;;;26.00;52.00;;;;;;4954024;29;20235;-66
2023/07/20 15:56:34;;;;;;;0.60;0.60;;;26.00;51.70;;;;;;4955844;28;20402;-68
2023/07/20 15:59:00;;;;;;;1.00;0.90;;;26.00;52.20;;;;;;4969537;28;20804;-66
2023/07/20 16:01:26;;;;;;;0.80;0.80;;;25.90;52.30;;;;;;4976336;28;20184;-64
2023/07/20 16:03:52;;;;;;;1.73;0.77;;;25.90;52.50;;;;;;4976522;28;20262;-65
2023/07/20 16:06:18;;;;;;;0.90;0.90;;;25.90;52.40;;;;;;4976868;28;20215;-65
2023/07/20 16:08:43;;;;;;;0.93;0.93;;;25.80;52.10;;;;;;4971846;28;20428;-65
2023/07/20 16:11:09;;;;;;;0.70;0.70;;;25.70;51.80;;;;;;4955360;28;20185;-67
2023/07/20 16:13:35;;;;;;;1.00;1.00;;;25.60;52.90;;;;;;4976463;28;20774;-64
2023/07/20 16:16:00;;;;;;;0.60;0.60;;;25.60;51.00;;;;;;4965555;28;20255;-69
2023/07/20 16:18:27;;;;;;;0.60;0.60;;;25.50;50.90;;;;;;4967795;28;20191;-68
2023/07/20 16:20:53;;;;;;;0.77;0.77;;;25.50;51.20;;;;;;4976024;28;20192;-66
2023/07/20 16:23:18;;;;;;;1.13;0.90;;;25.40;50.70;;;;;;4974480;28;20492;-67
2023/07/20 16:25:47;;;;;;;0.90;0.90;;;25.40;51.90;;;;;;4970098;28;20567;-68
2023/07/20 16:28:13;;;;;;;1.27;1.17;;;25.40;52.60;;;;;;4970527;28;20180;-67
2023/07/20 16:30:39;;;;;;;0.73;0.73;;;25.30;53.00;;;;;;4952294;28;20437;-67
2023/07/20 16:33:05;;;;;;;1.00;1.00;;;25.40;53.50;;;;;;4967111;28;20201;-66
2023/07/20 16:35:36;;;;;;;0.70;0.70;;;25.40;53.70;;;;;;4973266;28;20428;-65
2023/07/20 16:38:01;;;;;;;0.77;0.77;;;25.40;53.00;;;;;;4967715;28;20925;-67
2023/07/20 16:40:27;;;;;;;0.63;0.63;;;25.40;53.60;;;;;;4975085;28;20413;-62
2023/07/20 16:42:53;;;;;;;0.87;0.87;;;25.40;53.10;;;;;;4969841;28;20204;-63
2023/07/20 16:45:18;;;;;;;0.80;0.70;;;25.30;52.60;;;;;;4974146;28;20555;-67
2023/07/20 16:47:44;;;;;;;1.70;1.00;;;25.30;53.40;;;;;;4974173;28;20180;-62
2023/07/20 16:50:10;;;;;;;0.63;0.63;;;25.30;53.50;;;;;;4974622;28;20176;-68